»·PEaware :: N261AB KIFP-KINW

N261AB :: KIFP-KINW

FLIGHT INFORMATION

Flight Status: Arrived
Operator: Privately registered:
United States
More flights under this callsign
Pilot: Brian K. (18535)
Aircraft: Unknown
(DA62)
More flights by this aircraft type
Origin: KIFP Laughlin/Bullhead Intl
United States
Destination: KINW Winslow-Lindbergh Regl
United States
More flights between these airports :: More routes between these airports
Route:
File this flight plan on PilotEdge
Remarks:
Altitude:
(Current/Filed)
9,500ft
Speed:
(Current/Filed)
160kts
Departed: 11-Jan-19 05:02 PM
Arrived: 11-Jan-19 06:19 PM
Distance/Time
Traveled:
189nm/1:17
Distance/Time
To Go:
Arrived

Flight Plot

Page will automatically refresh every two minutes.

Flight plan parsing failed; only flown route is shown


Map Options




Map Legend


Flown Route
Filed Route
Departure Airport
Arrival Airport
Navaid (VOR, NDB)
Fix

Horizontal Profiles

Position Reports

Time Latitude Longitude Heading Altitude Ground
Speed
11-Jan-19 16:54 35.159556 -114.556793 266 705ft 0kts
11-Jan-19 16:55 35.159556 -114.556793 266 705ft 0kts
11-Jan-19 16:56 35.159466 -114.558080 242 705ft 10kts
11-Jan-19 16:57 35.155052 -114.557965 176 705ft 15kts
11-Jan-19 16:58 35.150921 -114.557662 176 705ft 14kts
11-Jan-19 16:59 35.147167 -114.557387 177 705ft 13kts
11-Jan-19 17:00 35.145845 -114.557705 266 705ft 0kts
11-Jan-19 17:01 35.146938 -114.558743 357 705ft 40kts
11-Jan-19 17:02 35.172901 -114.561999 335 1362ft 117kts
11-Jan-19 17:03 35.161633 -114.590299 179 2357ft 142kts
11-Jan-19 17:04 35.122449 -114.588560 177 3364ft 140kts
11-Jan-19 17:05 35.083540 -114.586070 177 4377ft 140kts
11-Jan-19 17:06 35.044945 -114.583063 177 5387ft 139kts
11-Jan-19 17:07 35.006503 -114.579715 177 6400ft 138kts
11-Jan-19 17:08 34.982569 -114.556224 69 7418ft 131kts
11-Jan-19 17:09 34.990167 -114.511116 80 8279ft 142kts
11-Jan-19 17:09 34.992627 -114.470487 84 8957ft 146kts
11-Jan-19 17:10 34.994263 -114.419124 85 9470ft 165kts
11-Jan-19 17:11 34.995645 -114.360179 86 9466ft 178kts
11-Jan-19 17:13 34.997180 -114.289671 86 9464ft 180kts
11-Jan-19 17:13 34.998263 -114.238875 86 9462ft 178kts
11-Jan-19 17:14 34.999506 -114.179151 86 9463ft 175kts
11-Jan-19 17:15 35.000715 -114.119881 86 9464ft 174kts
11-Jan-19 17:16 35.001896 -114.060611 86 9464ft 175kts
11-Jan-19 17:17 35.003047 -114.001387 86 9464ft 175kts
11-Jan-19 17:18 35.004176 -113.941894 86 9464ft 175kts
11-Jan-19 17:19 35.005273 -113.882472 86 9464ft 175kts
11-Jan-19 17:20 35.006342 -113.822963 86 9464ft 175kts
11-Jan-19 17:21 35.007382 -113.763546 86 9444ft 176kts
11-Jan-19 17:22 35.008393 -113.703977 86 9437ft 175kts
11-Jan-19 17:23 35.009375 -113.644462 86 9437ft 175kts
11-Jan-19 17:24 35.010328 -113.584998 86 9437ft 175kts
11-Jan-19 17:25 35.011236 -113.526272 86 9437ft 172kts
11-Jan-19 17:26 35.012116 -113.467872 86 9438ft 172kts
11-Jan-19 17:27 35.012966 -113.409602 86 9438ft 172kts
11-Jan-19 17:28 35.013789 -113.351202 86 9438ft 172kts
11-Jan-19 17:29 35.014573 -113.293403 87 9436ft 171kts
11-Jan-19 17:30 35.015328 -113.235363 86 9445ft 170kts
11-Jan-19 17:31 35.016060 -113.177727 86 9458ft 169kts
11-Jan-19 17:32 35.016906 -113.120795 90 9469ft 168kts
11-Jan-19 17:33 35.017462 -113.063491 89 9482ft 169kts
11-Jan-19 17:34 35.018091 -113.006015 89 9490ft 170kts
11-Jan-19 17:35 35.018707 -112.947955 88 9490ft 173kts
11-Jan-19 17:36 35.019305 -112.888653 88 9491ft 175kts
11-Jan-19 17:37 35.019881 -112.828710 86 9491ft 178kts
11-Jan-19 17:38 35.020454 -112.767992 86 9492ft 179kts
11-Jan-19 17:39 35.020999 -112.707080 86 9492ft 180kts
11-Jan-19 17:40 35.021507 -112.645966 86 9492ft 180kts
11-Jan-19 17:41 35.021984 -112.584949 86 9492ft 180kts
11-Jan-19 17:42 35.022424 -112.523848 86 9493ft 180kts
11-Jan-19 17:43 35.022840 -112.462776 85 9493ft 179kts
11-Jan-19 17:44 35.023328 -112.401864 85 9494ft 179kts
11-Jan-19 17:45 35.023694 -112.341193 85 9491ft 179kts
11-Jan-19 17:46 35.024030 -112.280768 85 9491ft 178kts
11-Jan-19 17:47 35.024325 -112.220151 84 9490ft 178kts
11-Jan-19 17:48 35.024561 -112.159755 85 9490ft 178kts
11-Jan-19 17:49 35.024812 -112.099251 85 9491ft 178kts
11-Jan-19 17:50 35.025010 -112.038684 86 9492ft 178kts
11-Jan-19 17:51 35.025176 -111.977993 85 9492ft 179kts
11-Jan-19 17:52 35.025306 -111.917181 86 9491ft 179kts
11-Jan-19 17:53 35.025411 -111.856416 86 9492ft 179kts
11-Jan-19 17:54 35.025472 -111.795331 86 9495ft 179kts
11-Jan-19 17:55 35.025513 -111.734348 86 9502ft 179kts
11-Jan-19 17:56 35.025529 -111.673580 86 9509ft 179kts
11-Jan-19 17:57 35.025517 -111.612855 85 9498ft 180kts
11-Jan-19 17:58 35.025476 -111.551888 85 9500ft 179kts
11-Jan-19 17:59 35.025404 -111.491009 85 9500ft 179kts
11-Jan-19 18:00 35.025299 -111.430200 85 9501ft 179kts
11-Jan-19 18:01 35.025163 -111.369354 85 9502ft 179kts
11-Jan-19 18:02 35.024962 -111.309092 85 9499ft 178kts
11-Jan-19 18:03 35.024721 -111.249230 85 9500ft 175kts
11-Jan-19 18:04 35.024506 -111.190207 84 9500ft 172kts
11-Jan-19 18:05 35.024265 -111.131963 84 9391ft 170kts
11-Jan-19 18:06 35.024004 -111.076981 84 8715ft 151kts
11-Jan-19 18:07 35.023765 -111.028225 85 8107ft 139kts
11-Jan-19 18:08 35.015382 -110.980522 99 7557ft 147kts
11-Jan-19 18:09 35.012245 -110.931429 84 7067ft 145kts
11-Jan-19 18:10 35.013477 -110.883676 84 6999ft 138kts
11-Jan-19 18:11 35.014842 -110.837313 84 6939ft 134kts
11-Jan-19 18:12 35.006550 -110.795043 120 6425ft 128kts
11-Jan-19 18:13 34.987829 -110.760163 121 6080ft 125kts
11-Jan-19 18:14 34.969463 -110.726256 121 5999ft 116kts
11-Jan-19 18:15 34.981060 -110.698199 28 6003ft 108kts
11-Jan-19 18:16 35.006559 -110.688815 341 5851ft 93kts
11-Jan-19 18:17 35.021579 -110.711653 297 4953ft 65kts
11-Jan-19 18:18 35.023678 -110.718396 117 4943ft 5kts
11-Jan-19 18:19 35.023622 -110.718270 118 4943ft 0kts
11-Jan-19 18:20 35.022651 -110.717789 188 4943ft 10kts
11-Jan-19 18:21 35.022007 -110.717616 204 4943ft 0kts
11-Jan-19 18:22 35.022007 -110.717616 204 4943ft 0kts
11-Jan-19 18:23 35.022007 -110.717616 204 4943ft 0kts
11-Jan-19 18:24 35.022007 -110.717616 204 4943ft 0kts
11-Jan-19 18:25 35.022007 -110.717616 204 4943ft 0kts

Navigation Log

Ident Type
Flight plan parsing failed, navigation log unavailable